Time,TemperatureF,DewpointF,PressureIn,WindDirection,WindDirectionDegrees,WindSpeedMPH,WindSpeedGustMPH,Humidity,HourlyPrecipIn,Conditions,Clouds,dailyrainin,SoftwareType,DateUTC
2013-07-19 00:02:00,78.8,72.1,29.93,WNW,302,2.7,5.8,80,0.00,CLR,,0.00,WeatherDisplay:10.37,2013-07-19 05:02:00,
2013-07-19 00:07:00,78.9,72.6,29.92,West,281,4.8,6.9,81,0.00,CLR,,0.00,WeatherDisplay:10.37,2013-07-19 05:07:00,
2013-07-19 00:12:00,78.7,72.4,29.92,WSW,237,4.4,6.9,81,0.00,CLR,,0.00,WeatherDisplay:10.37,2013-07-19 05:12:00,
2013-07-19 00:17:00,78.8,72.5,29.92,West,264,3.0,6.1,81,0.00,CLR,,0.00,WeatherDisplay:10.37,2013-07-19 05:17:00,
2013-07-19 00:22:00,78.7,72.4,29.92,SSW,198,3.5,5.8,81,0.00,CLR,,0.00,WeatherDisplay:10.37,2013-07-19 05:22:00,
2013-07-19 00:27:00,78.3,72.3,29.92,South,178,3.9,5.8,82,0.00,CLR,,0.00,WeatherDisplay:10.37,2013-07-19 05:27:00,
2013-07-19 00:32:00,78.4,72.4,29.91,South,177,2.6,8.1,82,0.00,CLR,,0.00,WeatherDisplay:10.37,2013-07-19 05:32:00,
2013-07-19 00:37:00,78.3,72.3,29.92,SW,223,1.5,3.5,82,0.00,CLR,,0.00,WeatherDisplay:10.37,2013-07-19 05:37:00,
2013-07-19 00:42:00,78.0,72.1,29.91,NW,308,3.7,6.9,82,0.00,CLR,,0.00,WeatherDisplay:10.37,2013-07-19 05:42:00,
2013-07-19 00:47:00,78.1,72.5,29.91,SSW,195,4.6,8.1,83,0.00,CLR,,0.00,WeatherDisplay:10.37,2013-07-19 05:47:00,
2013-07-19 00:52:00,78.1,72.5,29.91,WSW,244,4.8,9.2,83,0.00,CLR,,0.00,WeatherDisplay:10.37,2013-07-19 05:52:00,
2013-07-19 00:57:00,77.9,72.3,29.91,WSW,252,4.1,5.8,83,0.00,CLR,,0.00,WeatherDisplay:10.37,2013-07-19 05:57:00,
2013-07-19 01:02:00,77.9,72.3,29.91,SSE,165,4.9,9.2,83,0.00,CLR,,0.00,WeatherDisplay:10.37,2013-07-19 06:02:00,
2013-07-19 01:07:00,77.9,72.0,29.91,North,357,1.8,4.6,82,0.00,CLR,,0.00,WeatherDisplay:10.37,2013-07-19 06:07:00,
2013-07-19 01:12:00,77.9,72.0,29.91,SSW,208,2.5,5.8,82,0.00,CLR,,0.00,WeatherDisplay:10.37,2013-07-19 06:12:00,
2013-07-19 01:17:00,77.8,72.2,29.90,SW,220,2.1,4.4,83,0.00,CLR,,0.00,WeatherDisplay:10.37,2013-07-19 06:17:00,
2013-07-19 01:22:00,77.7,72.1,29.90,SSW,213,3.3,6.9,83,0.00,CLR,,0.00,WeatherDisplay:10.37,2013-07-19 06:22:00,
2013-07-19 01:27:00,77.5,71.9,29.90,NNE,30,3.5,9.2,83,0.00,CLR,,0.00,WeatherDisplay:10.37,2013-07-19 06:27:00,
2013-07-19 01:32:00,77.5,72.3,29.90,South,178,3.9,6.9,84,0.00,CLR,,0.00,WeatherDisplay:10.37,2013-07-19 06:32:00,
2013-07-19 01:37:00,77.4,72.2,29.90,SW,230,2.4,6.9,84,0.00,CLR,,0.00,WeatherDisplay:10.37,2013-07-19 06:37:00,
2013-07-19 01:42:00,77.3,72.1,29.90,SW,228,6.0,9.1,84,0.00,CLR,,0.00,WeatherDisplay:10.37,2013-07-19 06:42:00,
2013-07-19 01:47:00,77.2,72.0,29.90,SW,236,5.6,8.1,84,0.00,CLR,,0.00,WeatherDisplay:10.37,2013-07-19 06:47:00,
2013-07-19 01:52:00,77.3,71.7,29.90,SW,226,4.1,9.2,83,0.00,CLR,,0.00,WeatherDisplay:10.37,2013-07-19 06:52:00,
2013-07-19 01:57:00,77.2,71.6,29.90,South,184,5.5,8.1,83,0.00,CLR,,0.00,WeatherDisplay:10.37,2013-07-19 06:57:00,
2013-07-19 02:02:00,77.2,71.6,29.90,SSW,196,4.4,6.9,83,0.00,CLR,,0.00,WeatherDisplay:10.37,2013-07-19 07:02:00,
2013-07-19 02:07:00,77.1,71.5,29.90,SSW,206,4.0,9.2,83,0.00,CLR,,0.00,WeatherDisplay:10.37,2013-07-19 07:07:00,
2013-07-19 02:12:00,77.1,71.5,29.90,South,182,4.4,8.1,83,0.00,CLR,,0.00,WeatherDisplay:10.37,2013-07-19 07:12:00,
2013-07-19 02:17:00,77.0,71.4,29.90,SW,219,2.9,5.8,83,0.00,CLR,,0.00,WeatherDisplay:10.37,2013-07-19 07:17:00,
2013-07-19 02:22:00,76.9,71.7,29.89,SW,232,4.8,8.1,84,0.00,CLR,,0.00,WeatherDisplay:10.37,2013-07-19 07:22:00,
2013-07-19 02:27:00,76.7,71.5,29.89,SW,225,4.1,8.1,84,0.00,CLR,,0.00,WeatherDisplay:10.37,2013-07-19 07:27:00,
2013-07-19 02:32:00,76.7,71.5,29.89,WSW,243,4.9,7.0,84,0.00,CLR,,0.00,WeatherDisplay:10.37,2013-07-19 07:32:00,
2013-07-19 02:37:00,76.7,71.5,29.89,WSW,243,6.8,13.8,84,0.00,CLR,,0.00,WeatherDisplay:10.37,2013-07-19 07:37:00,
2013-07-19 02:42:00,76.7,71.5,29.89,WSW,249,4.8,6.5,84,0.00,CLR,,0.00,WeatherDisplay:10.37,2013-07-19 07:42:00,
2013-07-19 02:47:00,76.4,71.2,29.88,SW,229,5.4,9.1,84,0.00,CLR,,0.00,WeatherDisplay:10.37,2013-07-19 07:47:00,
2013-07-19 02:52:00,76.6,71.4,29.88,WNW,284,5.8,9.2,84,0.00,CLR,,0.00,WeatherDisplay:10.37,2013-07-19 07:52:00,
2013-07-19 02:57:00,76.4,71.2,29.88,SW,229,4.6,8.1,84,0.00,CLR,,0.00,WeatherDisplay:10.37,2013-07-19 07:57:00,
2013-07-19 03:02:00,76.4,71.2,29.88,SW,236,5.0,8.1,84,0.00,CLR,,0.00,WeatherDisplay:10.37,2013-07-19 08:02:00,
2013-07-19 03:07:00,76.2,71.0,29.88,WSW,240,6.5,12.7,84,0.00,CLR,,0.00,WeatherDisplay:10.37,2013-07-19 08:07:00,
2013-07-19 03:12:00,76.2,71.4,29.87,SSW,199,5.2,8.1,85,0.00,CLR,,0.00,WeatherDisplay:10.37,2013-07-19 08:12:00,
2013-07-19 03:17:00,76.2,71.0,29.87,NW,312,3.5,8.1,84,0.00,CLR,,0.00,WeatherDisplay:10.37,2013-07-19 08:17:00,
2013-07-19 03:22:00,76.0,70.8,29.86,SSE,151,5.6,11.5,84,0.00,CLR,,0.00,WeatherDisplay:10.37,2013-07-19 08:22:00,
2013-07-19 03:27:00,76.0,71.2,29.86,WSW,246,5.3,9.2,85,0.00,CLR,,0.00,WeatherDisplay:10.37,2013-07-19 08:27:00,
2013-07-19 03:32:00,75.9,71.1,29.86,South,174,5.1,6.9,85,0.00,CLR,,0.00,WeatherDisplay:10.37,2013-07-19 08:32:00,
2013-07-19 03:37:00,75.8,71.0,29.86,SSW,212,5.4,8.1,85,0.00,CLR,,0.00,WeatherDisplay:10.37,2013-07-19 08:37:00,
2013-07-19 03:42:00,75.9,71.1,29.86,SW,219,2.6,7.3,85,0.00,CLR,,0.00,WeatherDisplay:10.37,2013-07-19 08:42:00,
2013-07-19 03:47:00,75.8,71.0,29.86,SE,141,3.6,6.9,85,0.00,CLR,,0.00,WeatherDisplay:10.37,2013-07-19 08:47:00,
2013-07-19 03:52:00,75.7,70.9,29.86,SW,218,4.0,6.9,85,0.00,CLR,,0.00,WeatherDisplay:10.37,2013-07-19 08:52:00,
2013-07-19 03:57:00,75.8,71.3,29.86,WSW,256,5.3,7.0,86,0.00,CLR,,0.00,WeatherDisplay:10.37,2013-07-19 08:57:00,
2013-07-19 04:02:00,75.7,70.9,29.85,SSW,199,5.5,10.4,85,0.00,CLR,,0.00,WeatherDisplay:10.37,2013-07-19 09:02:00,
2013-07-19 04:07:00,75.6,70.8,29.85,WSW,254,4.5,9.2,85,0.00,CLR,,0.00,WeatherDisplay:10.37,2013-07-19 09:07:00,
2013-07-19 04:12:00,75.6,70.8,29.85,SSW,211,4.4,8.1,85,0.00,CLR,,0.00,WeatherDisplay:10.37,2013-07-19 09:12:00,
2013-07-19 04:17:00,75.5,70.7,29.85,South,172,4.1,8.6,85,0.00,CLR,,0.00,WeatherDisplay:10.37,2013-07-19 09:17:00,
2013-07-19 04:22:00,75.5,70.7,29.85,SW,226,3.6,6.5,85,0.00,CLR,,0.00,WeatherDisplay:10.37,2013-07-19 09:22:00,
2013-07-19 04:27:00,75.4,70.6,29.85,SSW,208,5.5,12.7,85,0.00,CLR,,0.00,WeatherDisplay:10.37,2013-07-19 09:27:00,
2013-07-19 04:32:00,75.2,70.7,29.85,SSW,208,3.9,8.1,86,0.00,CLR,,0.00,WeatherDisplay:10.37,2013-07-19 09:32:00,
2013-07-19 04:37:00,75.2,70.7,29.85,SSW,211,4.5,9.2,86,0.00,CLR,,0.00,WeatherDisplay:10.37,2013-07-19 09:37:00,
2013-07-19 04:42:00,75.0,70.5,29.85,SSE,167,5.2,9.2,86,0.00,CLR,,0.00,WeatherDisplay:10.37,2013-07-19 09:42:00,
2013-07-19 04:47:00,75.0,70.5,29.84,SSW,194,4.5,6.9,86,0.00,CLR,,0.00,WeatherDisplay:10.37,2013-07-19 09:47:00,
2013-07-19 04:52:00,74.9,70.4,29.84,SW,216,4.4,8.1,86,0.00,CLR,,0.00,WeatherDisplay:10.37,2013-07-19 09:52:00,
2013-07-19 04:57:00,74.7,70.2,29.85,SSW,213,6.5,10.5,86,0.00,CLR,,0.00,WeatherDisplay:10.37,2013-07-19 09:57:00,
2013-07-19 05:02:00,74.7,70.2,29.84,SW,215,5.0,11.5,86,0.00,CLR,,0.00,WeatherDisplay:10.37,2013-07-19 10:02:00,
2013-07-19 05:07:00,74.7,70.2,29.85,SSW,211,2.8,5.8,86,0.00,CLR,,0.00,WeatherDisplay:10.37,2013-07-19 10:07:00,
2013-07-19 05:12:00,74.6,70.1,29.85,SW,226,7.0,12.7,86,0.00,CLR,,0.00,WeatherDisplay:10.37,2013-07-19 10:12:00,
2013-07-19 05:17:00,74.7,70.2,29.85,WSW,239,6.9,9.2,86,0.00,CLR,,0.00,WeatherDisplay:10.37,2013-07-19 10:17:00,
2013-07-19 05:22:00,74.6,69.8,29.85,South,184,4.5,8.6,85,0.00,CLR,,0.00,WeatherDisplay:10.37,2013-07-19 10:22:00,
2013-07-19 05:27:00,74.6,69.8,29.85,WSW,239,5.3,9.2,85,0.00,CLR,,0.00,WeatherDisplay:10.37,2013-07-19 10:27:00,
2013-07-19 05:32:00,74.6,69.8,29.84,SW,233,4.8,7.5,85,0.00,CLR,,0.00,WeatherDisplay:10.37,2013-07-19 10:32:00,
2013-07-19 05:37:00,74.7,69.5,29.84,South,172,5.8,8.1,84,0.00,CLR,,0.00,WeatherDisplay:10.37,2013-07-19 10:37:00,
2013-07-19 05:42:00,74.8,69.6,29.84,NW,312,3.7,9.2,84,0.00,CLR,,0.00,WeatherDisplay:10.37,2013-07-19 10:42:00,
2013-07-19 05:47:00,74.6,69.1,29.84,SW,216,5.9,10.4,83,0.00,CLR,,0.00,WeatherDisplay:10.37,2013-07-19 10:47:00,
2013-07-19 05:52:00,74.7,68.8,29.84,SW,220,4.5,9.2,82,0.00,CLR,,0.00,WeatherDisplay:10.37,2013-07-19 10:52:00,
2013-07-19 05:57:00,75.1,68.9,29.84,SSW,194,2.9,11.5,81,0.00,CLR,,0.00,WeatherDisplay:10.37,2013-07-19 10:57:00,
2013-07-19 06:02:00,75.2,68.6,29.84,South,191,4.2,7.5,80,0.00,FEW,,0.00,WeatherDisplay:10.37,2013-07-19 11:02:00,
2013-07-19 06:07:00,75.3,68.3,29.84,SSW,212,5.1,9.2,79,0.00,FEW,,0.00,WeatherDisplay:10.37,2013-07-19 11:07:00,
2013-07-19 06:12:00,75.5,68.5,29.84,SSW,213,4.8,10.4,79,0.00,FEW,,0.00,WeatherDisplay:10.37,2013-07-19 11:12:00,
2013-07-19 06:17:00,75.6,68.3,29.84,SW,236,6.6,11.5,78,0.00,FEW,,0.00,WeatherDisplay:10.37,2013-07-19 11:17:00,
2013-07-19 06:22:00,76.0,68.3,29.84,SW,235,4.8,8.1,77,0.00,FEW,,0.00,WeatherDisplay:10.37,2013-07-19 11:22:00,
2013-07-19 06:27:00,76.1,68.4,29.84,SSE,158,3.1,13.8,77,0.00,FEW,,0.00,WeatherDisplay:10.37,2013-07-19 11:27:00,
2013-07-19 06:32:00,76.2,68.1,29.84,West,261,4.9,12.7,76,0.00,FEW,,0.00,WeatherDisplay:10.37,2013-07-19 11:32:00,
2013-07-19 06:37:00,76.3,68.2,29.84,South,177,5.5,8.5,76,0.00,FEW,,0.00,WeatherDisplay:10.37,2013-07-19 11:37:00,
2013-07-19 06:42:00,76.4,68.3,29.84,SSW,205,2.5,9.2,76,0.00,FEW,,0.00,WeatherDisplay:10.37,2013-07-19 11:42:00,
2013-07-19 06:47:00,76.6,68.5,29.85,SSE,158,6.1,10.4,76,0.00,FEW,,0.00,WeatherDisplay:10.37,2013-07-19 11:47:00,
2013-07-19 06:52:00,76.8,68.3,29.85,SSE,165,2.9,9.2,75,0.00,FEW,,0.00,WeatherDisplay:10.37,2013-07-19 11:52:00,
2013-07-19 06:57:00,76.9,68.4,29.84,WNW,292,5.0,6.9,75,0.00,FEW,,0.00,WeatherDisplay:10.37,2013-07-19 11:57:00,
2013-07-19 07:02:00,77.1,68.2,29.85,WNW,291,2.6,8.1,74,0.00,SCT,,0.00,WeatherDisplay:10.37,2013-07-19 12:02:00,
2013-07-19 07:07:00,77.0,68.1,29.85,WSW,244,4.6,8.1,74,0.00,SCT,,0.00,WeatherDisplay:10.37,2013-07-19 12:07:00,
2013-07-19 07:12:00,77.0,67.7,29.85,West,266,4.0,8.1,73,0.00,SCT,,0.00,WeatherDisplay:10.37,2013-07-19 12:12:00,
2013-07-19 07:17:00,77.1,67.4,29.86,West,260,7.6,13.8,72,0.00,SCT,,0.00,WeatherDisplay:10.37,2013-07-19 12:17:00,
2013-07-19 07:22:00,77.1,67.8,29.86,South,182,3.7,6.9,73,0.00,SCT,,0.00,WeatherDisplay:10.37,2013-07-19 12:22:00,
2013-07-19 07:27:00,77.2,67.9,29.87,WSW,257,4.4,10.4,73,0.00,SCT,,0.00,WeatherDisplay:10.37,2013-07-19 12:27:00,
2013-07-19 07:32:00,77.1,67.8,29.87,SSW,208,2.8,8.1,73,0.00,SCT,,0.00,WeatherDisplay:10.37,2013-07-19 12:32:00,
2013-07-19 07:37:00,77.1,68.2,29.87,NW,312,4.3,8.1,74,0.00,SCT,,0.00,WeatherDisplay:10.37,2013-07-19 12:37:00,
2013-07-19 07:42:00,77.3,68.4,29.87,WSW,254,3.4,7.5,74,0.00,SCT,,0.00,WeatherDisplay:10.37,2013-07-19 12:42:00,
2013-07-19 07:47:00,77.4,68.5,29.87,West,259,3.1,8.6,74,0.00,SCT,,0.00,WeatherDisplay:10.37,2013-07-19 12:47:00,
2013-07-19 07:52:00,77.7,68.0,29.87,WSW,250,4.7,8.1,72,0.00,SCT,,0.00,WeatherDisplay:10.37,2013-07-19 12:52:00,
2013-07-19 07:57:00,77.9,67.7,29.87,West,260,4.4,8.1,71,0.00,SCT,,0.00,WeatherDisplay:10.37,2013-07-19 12:57:00,
2013-07-19 08:02:00,78.4,67.8,29.87,SE,144,2.3,6.9,70,0.00,BKN,,0.00,WeatherDisplay:10.37,2013-07-19 13:02:00,
2013-07-19 08:07:00,78.7,68.1,29.86,West,268,4.2,8.1,70,0.00,BKN,,0.00,WeatherDisplay:10.37,2013-07-19 13:07:00,
2013-07-19 08:12:00,79.0,68.0,29.86,West,270,3.2,4.6,69,0.00,BKN,,0.00,WeatherDisplay:10.37,2013-07-19 13:12:00,
2013-07-19 08:17:00,79.4,67.9,29.86,WSW,249,3.3,4.6,68,0.00,BKN,,0.00,WeatherDisplay:10.37,2013-07-19 13:17:00,
2013-07-19 08:22:00,79.4,67.5,29.86,West,271,4.3,8.1,67,0.00,BKN,,0.00,WeatherDisplay:10.37,2013-07-19 13:22:00,
2013-07-19 08:26:00,79.8,67.9,29.86,SW,230,5.2,8.1,67,0.00,BKN,,0.00,WeatherDisplay:10.37,2013-07-19 13:26:00,
2013-07-19 08:31:00,80.6,68.2,29.86,South,191,2.2,5.8,66,0.00,BKN,,0.00,WeatherDisplay:10.37,2013-07-19 13:31:00,
2013-07-19 08:36:00,81.0,68.1,29.86,SSW,209,4.4,8.1,65,0.00,BKN,,0.00,WeatherDisplay:10.37,2013-07-19 13:36:00,
2013-07-19 08:41:00,80.1,67.7,29.86,West,280,7.2,12.7,66,0.00,BKN,,0.00,WeatherDisplay:10.37,2013-07-19 13:41:00,
2013-07-19 08:46:00,79.9,68.4,29.86,WSW,240,5.2,9.1,68,0.00,BKN,,0.00,WeatherDisplay:10.37,2013-07-19 13:46:00,
2013-07-19 08:51:00,79.4,67.9,29.86,SW,225,3.9,8.1,68,0.00,BKN,,0.00,WeatherDisplay:10.37,2013-07-19 13:51:00,
2013-07-19 08:56:00,79.5,68.9,29.86,SW,215,1.0,4.6,70,0.00,BKN,,0.00,WeatherDisplay:10.37,2013-07-19 13:56:00,
2013-07-19 09:01:00,80.4,68.9,29.86,NNW,332,5.9,13.8,68,0.00,BKN,,0.00,WeatherDisplay:10.37,2013-07-19 14:01:00,
2013-07-19 09:06:00,80.5,68.5,29.86,WNW,290,4.8,8.1,67,0.00,BKN,,0.00,WeatherDisplay:10.37,2013-07-19 14:06:00,
2013-07-19 09:11:00,81.0,68.1,29.85,WSW,243,4.9,9.2,65,0.00,BKN,,0.00,WeatherDisplay:10.37,2013-07-19 14:11:00,
2013-07-19 09:16:00,81.1,67.8,29.85,West,277,6.1,9.2,64,0.00,BKN,,0.00,WeatherDisplay:10.37,2013-07-19 14:16:00,
2013-07-19 09:21:00,81.1,68.2,29.85,NE,44,4.5,10.4,65,0.00,BKN,,0.00,WeatherDisplay:10.37,2013-07-19 14:21:00,
2013-07-19 09:26:00,81.1,68.2,29.85,SSW,192,5.6,9.2,65,0.00,BKN,,0.00,WeatherDisplay:10.37,2013-07-19 14:26:00,
2013-07-19 09:31:00,81.4,68.5,29.85,WSW,254,4.6,10.4,65,0.00,BKN,,0.00,WeatherDisplay:10.37,2013-07-19 14:31:00,
2013-07-19 09:36:00,81.7,68.3,29.85,WSW,237,4.7,9.2,64,0.00,BKN,,0.00,WeatherDisplay:10.37,2013-07-19 14:36:00,
2013-07-19 09:41:00,81.6,68.2,29.84,West,278,6.0,12.7,64,0.00,BKN,,0.00,WeatherDisplay:10.37,2013-07-19 14:41:00,
2013-07-19 09:46:00,81.6,67.8,29.84,SSW,208,7.0,11.0,63,0.00,BKN,,0.00,WeatherDisplay:10.37,2013-07-19 14:46:00,
2013-07-19 09:51:00,81.6,68.2,29.84,SW,220,4.7,9.2,64,0.00,BKN,,0.00,WeatherDisplay:10.37,2013-07-19 14:51:00,
2013-07-19 09:56:00,81.7,67.9,29.84,West,271,5.6,9.2,63,0.00,BKN,,0.00,WeatherDisplay:10.37,2013-07-19 14:56:00,
2013-07-19 10:01:00,81.8,68.0,29.84,South,177,6.4,10.4,63,0.00,BKN,,0.00,WeatherDisplay:10.37,2013-07-19 15:01:00,
2013-07-19 10:06:00,81.9,68.1,29.84,NW,318,6.3,9.2,63,0.00,BKN,,0.00,WeatherDisplay:10.37,2013-07-19 15:06:00,
2013-07-19 10:11:00,82.4,69.0,29.85,WNW,284,4.3,8.1,64,0.00,BKN,,0.00,WeatherDisplay:10.37,2013-07-19 15:11:00,
2013-07-19 10:16:00,82.9,69.5,29.85,NW,318,4.9,8.1,64,0.00,BKN,,0.00,WeatherDisplay:10.37,2013-07-19 15:16:00,
2013-07-19 10:21:00,83.5,68.2,29.84,SW,228,8.2,12.7,60,0.00,BKN,,0.00,WeatherDisplay:10.37,2013-07-19 15:21:00,
2013-07-19 10:26:00,83.4,68.5,29.84,WNW,283,4.5,9.2,61,0.00,BKN,,0.00,WeatherDisplay:10.37,2013-07-19 15:26:00,
2013-07-19 10:31:00,83.1,68.7,29.83,WNW,283,5.1,8.1,62,0.00,BKN,,0.00,WeatherDisplay:10.37,2013-07-19 15:31:00,
2013-07-19 10:36:00,82.6,68.7,29.84,WSW,237,5.2,11.5,63,0.00,BKN,,0.00,WeatherDisplay:10.37,2013-07-19 15:36:00,
2013-07-19 10:41:00,82.6,68.7,29.84,West,268,5.6,10.6,63,0.00,BKN,,0.00,WeatherDisplay:10.37,2013-07-19 15:41:00,
2013-07-19 10:46:00,82.4,69.0,29.83,NW,312,4.0,9.2,64,0.00,BKN,,0.00,WeatherDisplay:10.37,2013-07-19 15:46:00,
2013-07-19 10:51:00,82.8,69.4,29.83,WSW,239,4.1,6.9,64,0.00,BKN,,0.00,WeatherDisplay:10.37,2013-07-19 15:51:00,
2013-07-19 10:56:00,83.1,68.7,29.84,SW,228,7.6,16.1,62,0.00,BKN,,0.00,WeatherDisplay:10.37,2013-07-19 15:56:00,
2013-07-19 11:01:00,83.4,69.0,29.84,WSW,247,3.3,9.6,62,0.00,SCT,,0.00,WeatherDisplay:10.37,2013-07-19 16:01:00,
2013-07-19 11:06:00,82.4,68.5,29.83,WSW,247,4.4,8.1,63,0.00,SCT,,0.00,WeatherDisplay:10.37,2013-07-19 16:06:00,
2013-07-19 11:11:00,81.9,68.5,29.84,SSW,199,4.9,9.2,64,0.00,SCT,,0.00,WeatherDisplay:10.37,2013-07-19 16:11:00,
2013-07-19 11:16:00,81.6,69.1,29.84,West,266,5.6,9.2,66,0.00,SCT,,0.00,WeatherDisplay:10.37,2013-07-19 16:16:00,
2013-07-19 11:21:00,81.6,69.1,29.83,SW,216,6.1,10.4,66,0.00,SCT,,0.00,WeatherDisplay:10.37,2013-07-19 16:21:00,
2013-07-19 11:26:00,81.8,69.3,29.83,WSW,242,3.5,11.5,66,0.00,SCT,,0.00,WeatherDisplay:10.37,2013-07-19 16:26:00,
2013-07-19 11:31:00,81.7,69.2,29.83,WSW,253,6.8,11.5,66,0.00,SCT,,0.00,WeatherDisplay:10.37,2013-07-19 16:31:00,
2013-07-19 11:36:00,82.1,69.6,29.83,WNW,300,3.1,8.1,66,0.00,SCT,,0.00,WeatherDisplay:10.37,2013-07-19 16:36:00,
2013-07-19 11:41:00,83.1,70.1,29.83,South,188,1.4,4.6,65,0.00,SCT,,0.00,WeatherDisplay:10.37,2013-07-19 16:41:00,
2013-07-19 11:46:00,84.1,69.2,29.83,SW,215,6.9,9.2,61,0.00,SCT,,0.00,WeatherDisplay:10.37,2013-07-19 16:46:00,
2013-07-19 11:51:00,83.4,68.5,29.83,South,191,5.7,10.4,61,0.00,SCT,,0.00,WeatherDisplay:10.37,2013-07-19 16:51:00,
2013-07-19 11:56:00,83.0,69.6,29.83,WSW,247,5.9,11.5,64,0.00,SCT,,0.00,WeatherDisplay:10.37,2013-07-19 16:56:00,
2013-07-19 12:01:00,82.8,69.4,29.83,SW,232,6.8,15.0,64,0.00,SCT,,0.00,WeatherDisplay:10.37,2013-07-19 17:01:00,
2013-07-19 12:06:00,83.1,70.1,29.82,WSW,246,3.0,6.9,65,0.00,SCT,,0.00,WeatherDisplay:10.37,2013-07-19 17:06:00,
2013-07-19 12:11:00,83.6,69.7,29.82,WSW,246,3.7,10.4,63,0.00,SCT,,0.00,WeatherDisplay:10.37,2013-07-19 17:11:00,
2013-07-19 12:16:00,84.2,69.3,29.82,NW,312,5.7,12.7,61,0.00,SCT,,0.00,WeatherDisplay:10.37,2013-07-19 17:16:00,
2013-07-19 12:21:00,84.5,68.1,29.82,WNW,295,6.2,10.4,58,0.00,SCT,,0.00,WeatherDisplay:10.37,2013-07-19 17:21:00,
2013-07-19 12:26:00,84.6,68.2,29.82,SW,232,6.2,11.1,58,0.00,SCT,,0.00,WeatherDisplay:10.37,2013-07-19 17:26:00,
2013-07-19 12:31:00,84.5,68.1,29.82,West,270,4.6,9.2,58,0.00,SCT,,0.00,WeatherDisplay:10.37,2013-07-19 17:31:00,
2013-07-19 12:36:00,85.3,69.3,29.82,West,276,6.4,13.8,59,0.00,SCT,,0.00,WeatherDisplay:10.37,2013-07-19 17:36:00,
2013-07-19 12:41:00,84.9,68.0,29.82,West,270,8.7,13.8,57,0.00,SCT,,0.00,WeatherDisplay:10.37,2013-07-19 17:41:00,
2013-07-19 12:46:00,84.9,68.0,29.82,WSW,257,4.2,13.8,57,0.00,SCT,,0.00,WeatherDisplay:10.37,2013-07-19 17:46:00,
2013-07-19 12:51:00,84.6,67.7,29.81,SSW,204,3.5,9.2,57,0.00,SCT,,0.00,WeatherDisplay:10.37,2013-07-19 17:51:00,
2013-07-19 12:56:00,84.3,67.9,29.82,West,260,7.4,11.5,58,0.00,SCT,,0.00,WeatherDisplay:10.37,2013-07-19 17:56:00,
2013-07-19 13:01:00,84.0,68.1,29.81,WNW,301,6.8,10.4,59,0.00,SCT,,0.00,WeatherDisplay:10.37,2013-07-19 18:01:00,
2013-07-19 13:06:00,84.1,68.7,29.81,WSW,237,4.4,6.9,60,0.00,SCT,,0.00,WeatherDisplay:10.37,2013-07-19 18:06:00,
2013-07-19 13:11:00,84.6,68.7,29.81,SSW,212,2.3,6.2,59,0.00,SCT,,0.00,WeatherDisplay:10.37,2013-07-19 18:11:00,
2013-07-19 13:16:00,84.7,68.3,29.81,SSW,205,4.9,9.2,58,0.00,SCT,,0.00,WeatherDisplay:10.37,2013-07-19 18:16:00,
2013-07-19 13:21:00,84.5,68.1,29.81,SSW,206,8.6,13.8,58,0.00,SCT,,0.00,WeatherDisplay:10.37,2013-07-19 18:21:00,
2013-07-19 13:26:00,85.1,68.7,29.81,SSW,201,5.2,10.4,58,0.00,SCT,,0.00,WeatherDisplay:10.37,2013-07-19 18:26:00,
2013-07-19 13:31:00,85.3,67.3,29.81,SSW,195,7.2,12.7,55,0.00,SCT,,0.00,WeatherDisplay:10.37,2013-07-19 18:31:00,
2013-07-19 13:36:00,85.6,68.1,29.81,WSW,247,5.0,8.8,56,0.00,SCT,,0.00,WeatherDisplay:10.37,2013-07-19 18:36:00,
2013-07-19 13:41:00,85.8,67.8,29.81,NW,319,8.0,13.8,55,0.00,SCT,,0.00,WeatherDisplay:10.37,2013-07-19 18:41:00,
2013-07-19 13:46:00,86.3,68.8,29.81,NW,318,6.3,8.1,56,0.00,SCT,,0.00,WeatherDisplay:10.37,2013-07-19 18:46:00,
2013-07-19 13:51:00,86.7,67.5,29.81,WNW,298,6.5,12.7,53,0.00,SCT,,0.00,WeatherDisplay:10.37,2013-07-19 18:51:00,
2013-07-19 13:56:00,86.6,68.0,29.81,SSW,201,6.0,9.4,54,0.00,SCT,,0.00,WeatherDisplay:10.37,2013-07-19 18:56:00,
2013-07-19 14:01:00,87.0,67.8,29.81,West,276,7.6,13.8,53,0.00,SCT,,0.00,WeatherDisplay:10.37,2013-07-19 19:01:00,
2013-07-19 14:06:00,87.6,67.8,29.80,West,260,5.3,12.7,52,0.00,SCT,,0.00,WeatherDisplay:10.37,2013-07-19 19:06:00,
2013-07-19 14:11:00,87.4,68.2,29.80,West,264,7.6,12.7,53,0.00,SCT,,0.00,WeatherDisplay:10.37,2013-07-19 19:11:00,
2013-07-19 14:16:00,87.4,68.2,29.80,SSW,204,6.4,15.0,53,0.00,SCT,,0.00,WeatherDisplay:10.37,2013-07-19 19:16:00,
2013-07-19 14:21:00,87.8,69.1,29.80,WNW,284,5.8,12.7,54,0.00,SCT,,0.00,WeatherDisplay:10.37,2013-07-19 19:21:00,
2013-07-19 14:26:00,87.9,68.6,29.80,SSW,198,6.1,11.5,53,0.00,SCT,,0.00,WeatherDisplay:10.37,2013-07-19 19:26:00,
2013-07-19 14:31:00,88.0,68.7,29.80,WNW,291,8.8,16.1,53,0.00,SCT,,0.00,WeatherDisplay:10.37,2013-07-19 19:31:00,
2013-07-19 14:36:00,88.4,69.1,29.80,SSW,195,3.8,8.1,53,0.00,SCT,,0.00,WeatherDisplay:10.37,2013-07-19 19:36:00,
2013-07-19 14:41:00,88.9,70.1,29.80,South,187,6.6,11.5,54,0.00,SCT,,0.00,WeatherDisplay:10.37,2013-07-19 19:41:00,
2013-07-19 14:46:00,89.0,69.6,29.80,SSW,211,8.2,17.3,53,0.00,SCT,,0.00,WeatherDisplay:10.37,2013-07-19 19:46:00,
2013-07-19 14:51:00,88.2,70.0,29.80,West,277,7.1,11.5,55,0.00,SCT,,0.00,WeatherDisplay:10.37,2013-07-19 19:51:00,
2013-07-19 14:56:00,87.9,70.8,29.80,SW,228,1.5,6.9,57,0.00,SCT,,0.00,WeatherDisplay:10.37,2013-07-19 19:56:00,
2013-07-19 15:01:00,88.2,70.5,29.80,South,188,7.4,12.5,56,0.00,FEW,,0.00,WeatherDisplay:10.37,2013-07-19 20:01:00,
2013-07-19 15:06:00,87.8,70.1,29.80,South,182,4.9,12.7,56,0.00,FEW,,0.00,WeatherDisplay:10.37,2013-07-19 20:06:00,
2013-07-19 15:11:00,88.1,70.9,29.80,South,188,6.1,11.0,57,0.00,FEW,,0.00,WeatherDisplay:10.37,2013-07-19 20:11:00,
2013-07-19 15:16:00,87.9,69.7,29.80,West,264,8.4,16.1,55,0.00,FEW,,0.00,WeatherDisplay:10.37,2013-07-19 20:16:00,
2013-07-19 15:21:00,87.9,70.8,29.80,South,188,5.6,10.8,57,0.00,FEW,,0.00,WeatherDisplay:10.37,2013-07-19 20:21:00,
2013-07-19 15:26:00,88.4,70.2,29.80,South,189,4.7,10.4,55,0.00,FEW,,0.00,WeatherDisplay:10.37,2013-07-19 20:26:00,
2013-07-19 15:31:00,87.7,70.1,29.79,WNW,284,7.8,10.4,56,0.00,FEW,,0.00,WeatherDisplay:10.37,2013-07-19 20:31:00,
2013-07-19 15:36:00,87.2,71.1,29.79,SW,222,2.9,5.8,59,0.00,FEW,,0.00,WeatherDisplay:10.37,2013-07-19 20:36:00,
2013-07-19 15:41:00,86.9,70.8,29.79,SW,222,4.7,9.2,59,0.00,FEW,,0.00,WeatherDisplay:10.37,2013-07-19 20:41:00,
2013-07-19 15:46:00,86.8,70.8,29.79,WSW,242,3.7,8.1,59,0.00,FEW,,0.00,WeatherDisplay:10.37,2013-07-19 20:46:00,
2013-07-19 15:51:00,87.4,71.3,29.79,SW,225,5.8,8.1,59,0.00,FEW,,0.00,WeatherDisplay:10.37,2013-07-19 20:51:00,
2013-07-19 15:56:00,87.6,71.0,29.79,West,260,5.6,8.1,58,0.00,FEW,,0.00,WeatherDisplay:10.37,2013-07-19 20:56:00,
2013-07-19 16:01:00,87.6,69.4,29.79,SSW,199,6.0,12.7,55,0.00,SCT,,0.00,WeatherDisplay:10.37,2013-07-19 21:01:00,
2013-07-19 16:06:00,87.4,69.8,29.79,WNW,287,4.0,9.2,56,0.00,SCT,,0.00,WeatherDisplay:10.37,2013-07-19 21:06:00,
2013-07-19 16:11:00,87.6,70.0,29.79,West,267,7.5,12.7,56,0.00,SCT,,0.00,WeatherDisplay:10.37,2013-07-19 21:11:00,
2013-07-19 16:16:00,87.7,69.5,29.79,NW,304,3.4,6.9,55,0.00,SCT,,0.00,WeatherDisplay:10.37,2013-07-19 21:16:00,
2013-07-19 16:21:00,88.1,68.8,29.79,SW,215,6.8,8.1,53,0.00,SCT,,0.00,WeatherDisplay:10.37,2013-07-19 21:21:00,
2013-07-19 16:26:00,87.5,68.8,29.79,South,184,3.4,9.2,54,0.00,SCT,,0.00,WeatherDisplay:10.37,2013-07-19 21:26:00,
2013-07-19 16:31:00,88.2,69.5,29.79,SW,230,6.3,9.2,54,0.00,SCT,,0.00,WeatherDisplay:10.37,2013-07-19 21:31:00,
2013-07-19 16:36:00,88.7,68.8,29.79,WSW,252,5.3,9.2,52,0.00,SCT,,0.00,WeatherDisplay:10.37,2013-07-19 21:36:00,
2013-07-19 16:41:00,88.2,67.2,29.79,SSW,202,5.5,12.7,50,0.00,SCT,,0.00,WeatherDisplay:10.37,2013-07-19 21:41:00,
2013-07-19 16:46:00,88.6,66.4,29.79,WNW,301,6.4,13.8,48,0.00,SCT,,0.00,WeatherDisplay:10.37,2013-07-19 21:46:00,
2013-07-19 16:51:00,88.9,67.3,29.79,WSW,250,3.6,5.8,49,0.00,SCT,,0.00,WeatherDisplay:10.37,2013-07-19 21:51:00,
2013-07-19 16:56:00,88.8,67.2,29.79,West,264,3.8,9.2,49,0.00,SCT,,0.00,WeatherDisplay:10.37,2013-07-19 21:56:00,
2013-07-19 17:01:00,89.2,66.9,29.78,NW,322,6.3,10.4,48,0.00,SCT,,0.00,WeatherDisplay:10.37,2013-07-19 22:01:00,
2013-07-19 17:06:00,88.8,66.0,29.78,WSW,250,6.7,13.8,47,0.00,SCT,,0.00,WeatherDisplay:10.37,2013-07-19 22:06:00,
2013-07-19 17:11:00,88.3,66.1,29.78,SSW,205,7.6,12.7,48,0.00,SCT,,0.00,WeatherDisplay:10.37,2013-07-19 22:11:00,
2013-07-19 17:16:00,88.4,66.2,29.78,WNW,285,7.6,11.5,48,0.00,SCT,,0.00,WeatherDisplay:10.37,2013-07-19 22:16:00,
2013-07-19 17:21:00,88.9,69.0,29.78,WNW,298,2.1,5.8,52,0.00,SCT,,0.00,WeatherDisplay:10.37,2013-07-19 22:21:00,
2013-07-19 17:26:00,88.6,68.7,29.78,ENE,65,4.7,10.4,52,0.00,SCT,,0.00,WeatherDisplay:10.37,2013-07-19 22:26:00,
2013-07-19 17:31:00,88.0,69.8,29.78,WSW,250,2.1,5.8,55,0.00,SCT,,0.00,WeatherDisplay:10.37,2013-07-19 22:31:00,
2013-07-19 17:36:00,86.6,69.0,29.78,WNW,287,6.3,9.2,56,0.00,SCT,,0.00,WeatherDisplay:10.37,2013-07-19 22:36:00,
2013-07-19 17:41:00,86.2,70.2,29.78,SW,236,3.8,8.1,59,0.00,SCT,,0.00,WeatherDisplay:10.37,2013-07-19 22:41:00,
2013-07-19 17:46:00,85.8,70.3,29.78,SW,233,2.4,5.8,60,0.00,SCT,,0.00,WeatherDisplay:10.37,2013-07-19 22:46:00,
2013-07-19 17:51:00,85.7,71.7,29.78,WSW,240,1.4,6.3,63,0.00,SCT,,0.00,WeatherDisplay:10.37,2013-07-19 22:51:00,
2013-07-19 17:56:00,84.9,72.3,29.78,NNW,336,3.6,5.8,66,0.01,RA,,0.01,WeatherDisplay:10.37,2013-07-19 22:56:00,
2013-07-19 18:01:00,82.8,72.4,29.79,WNW,298,5.4,10.4,71,0.02,RA,,0.02,WeatherDisplay:10.37,2013-07-19 23:01:00,
2013-07-19 18:06:00,80.4,71.3,29.78,NW,309,3.2,5.8,74,0.03,RA,,0.03,WeatherDisplay:10.37,2013-07-19 23:06:00,
2013-07-19 18:11:00,79.8,72.3,29.78,SSE,154,0.4,3.5,78,0.03,RA,,0.03,WeatherDisplay:10.37,2013-07-19 23:11:00,
2013-07-19 18:16:00,79.3,73.0,29.78,SW,226,1.3,3.5,81,0.03,FEW,,0.03,WeatherDisplay:10.37,2013-07-19 23:16:00,
2013-07-19 18:21:00,79.5,73.2,29.78,WSW,239,0.2,2.3,81,0.03,FEW,,0.03,WeatherDisplay:10.37,2013-07-19 23:21:00,
2013-07-19 18:26:00,79.8,73.1,29.78,WSW,253,0.9,2.3,80,0.03,FEW,,0.03,WeatherDisplay:10.37,2013-07-19 23:26:00,
2013-07-19 18:31:00,80.5,72.2,29.77,West,276,1.6,4.6,76,0.03,FEW,,0.03,WeatherDisplay:10.37,2013-07-19 23:31:00,
2013-07-19 18:36:00,81.3,71.4,29.77,NNE,12,2.2,5.8,72,0.03,FEW,,0.03,WeatherDisplay:10.37,2013-07-19 23:36:00,
2013-07-19 18:41:00,82.1,70.9,29.78,NE,44,1.9,4.6,69,0.03,FEW,,0.03,WeatherDisplay:10.37,2013-07-19 23:41:00,
2013-07-19 18:46:00,82.6,70.5,29.78,West,273,4.0,8.1,67,0.03,FEW,,0.03,WeatherDisplay:10.37,2013-07-19 23:46:00,
2013-07-19 18:51:00,82.6,69.6,29.78,West,264,4.5,8.1,65,0.03,FEW,,0.03,WeatherDisplay:10.37,2013-07-19 23:51:00,
2013-07-19 18:56:00,82.8,70.3,29.78,North,9,1.9,3.5,66,0.02,FEW,,0.03,WeatherDisplay:10.37,2013-07-19 23:56:00,
2013-07-19 19:01:00,82.9,68.5,29.78,NW,311,5.5,9.2,62,0.01,FEW,,0.03,WeatherDisplay:10.37,2013-07-20 00:01:00,
2013-07-19 19:06:00,83.1,67.8,29.78,NNW,331,4.6,6.4,60,0.00,FEW,,0.03,WeatherDisplay:10.37,2013-07-20 00:06:00,
2013-07-19 19:11:00,83.2,66.4,29.78,WNW,287,3.7,9.2,57,0.00,FEW,,0.03,WeatherDisplay:10.37,2013-07-20 00:11:00,
2013-07-19 19:16:00,83.3,66.5,29.78,WNW,285,1.0,3.5,57,0.00,FEW,,0.03,WeatherDisplay:10.37,2013-07-20 00:16:00,
2013-07-19 19:21:00,83.4,66.6,29.78,West,280,1.6,4.6,57,0.00,FEW,,0.03,WeatherDisplay:10.37,2013-07-20 00:21:00,
2013-07-19 19:26:00,83.3,66.5,29.79,West,263,1.4,6.9,57,0.00,FEW,,0.03,WeatherDisplay:10.37,2013-07-20 00:26:00,
2013-07-19 19:31:00,83.0,66.2,29.79,WNW,297,3.7,5.8,57,0.00,FEW,,0.03,WeatherDisplay:10.37,2013-07-20 00:31:00,
2013-07-19 19:36:00,82.9,66.1,29.79,WNW,285,2.6,6.9,57,0.00,FEW,,0.03,WeatherDisplay:10.37,2013-07-20 00:36:00,
2013-07-19 19:41:00,82.9,64.5,29.79,WSW,244,2.2,5.8,54,0.00,FEW,,0.03,WeatherDisplay:10.37,2013-07-20 00:41:00,
2013-07-19 19:46:00,82.6,63.7,29.80,NNW,329,2.9,8.1,53,0.00,FEW,,0.03,WeatherDisplay:10.37,2013-07-20 00:46:00,
2013-07-19 19:51:00,82.2,62.8,29.80,WNW,285,2.3,8.1,52,0.00,FEW,,0.03,WeatherDisplay:10.37,2013-07-20 00:51:00,
2013-07-19 19:56:00,81.6,60.0,29.80,NW,326,6.2,11.5,48,0.00,FEW,,0.03,WeatherDisplay:10.37,2013-07-20 00:56:00,
2013-07-19 20:01:00,81.3,60.3,29.80,NW,322,4.3,8.1,49,0.00,FEW,,0.03,WeatherDisplay:10.37,2013-07-20 01:01:00,
2013-07-19 20:06:00,81.0,60.0,29.80,NW,305,3.2,4.6,49,0.00,FEW,,0.03,WeatherDisplay:10.37,2013-07-20 01:06:00,
2013-07-19 20:11:00,80.4,59.5,29.80,NNW,340,5.0,9.2,49,0.00,FEW,,0.03,WeatherDisplay:10.37,2013-07-20 01:11:00,
2013-07-19 20:16:00,80.2,59.9,29.80,WNW,300,2.7,5.8,50,0.00,FEW,,0.03,WeatherDisplay:10.37,2013-07-20 01:16:00,
2013-07-19 20:21:00,80.0,59.7,29.81,WNW,297,0.1,1.2,50,0.00,FEW,,0.03,WeatherDisplay:10.37,2013-07-20 01:21:00,
2013-07-19 20:26:00,80.0,60.2,29.80,WSW,249,0.7,4.6,51,0.00,FEW,,0.03,WeatherDisplay:10.37,2013-07-20 01:26:00,
2013-07-19 20:31:00,79.5,60.3,29.81,WSW,249,0.0,0.0,52,0.00,FEW,,0.03,WeatherDisplay:10.37,2013-07-20 01:31:00,
2013-07-19 20:36:00,79.2,60.1,29.80,WNW,283,0.2,2.3,52,0.00,FEW,,0.03,WeatherDisplay:10.37,2013-07-20 01:36:00,
2013-07-19 20:41:00,78.8,60.2,29.81,North,356,1.3,2.3,53,0.00,FEW,,0.03,WeatherDisplay:10.37,2013-07-20 01:41:00,
2013-07-19 20:46:00,78.4,59.9,29.81,NW,321,0.6,2.0,53,0.00,FEW,,0.03,WeatherDisplay:10.37,2013-07-20 01:46:00,
2013-07-19 20:51:00,78.1,60.1,29.81,WNW,302,0.3,2.3,54,0.00,FEW,,0.03,WeatherDisplay:10.37,2013-07-20 01:51:00,
2013-07-19 20:56:00,77.9,59.9,29.81,WNW,285,1.8,5.8,54,0.00,FEW,,0.03,WeatherDisplay:10.37,2013-07-20 01:56:00,
2013-07-19 21:01:00,77.9,60.4,29.81,NNW,336,1.0,2.3,55,0.00,FEW,,0.03,WeatherDisplay:10.37,2013-07-20 02:01:00,
2013-07-19 21:06:00,77.5,60.6,29.81,NW,307,1.3,3.5,56,0.00,FEW,,0.03,WeatherDisplay:10.37,2013-07-20 02:06:00,
2013-07-19 21:11:00,77.4,60.5,29.81,NW,324,2.9,5.8,56,0.00,FEW,,0.03,WeatherDisplay:10.37,2013-07-20 02:11:00,
2013-07-19 21:16:00,77.4,60.5,29.82,NNW,332,3.3,5.8,56,0.00,FEW,,0.03,WeatherDisplay:10.37,2013-07-20 02:16:00,
2013-07-19 21:21:00,77.4,61.0,29.82,WNW,292,0.3,1.9,57,0.00,FEW,,0.03,WeatherDisplay:10.37,2013-07-20 02:21:00,
2013-07-19 21:26:00,77.1,60.7,29.83,WNW,302,2.6,4.6,57,0.00,FEW,,0.03,WeatherDisplay:10.37,2013-07-20 02:26:00,
2013-07-19 21:31:00,76.9,61.0,29.83,West,270,1.0,2.3,58,0.00,FEW,,0.03,WeatherDisplay:10.37,2013-07-20 02:31:00,
2013-07-19 21:36:00,76.8,61.4,29.83,West,267,0.0,0.0,59,0.00,FEW,,0.03,WeatherDisplay:10.37,2013-07-20 02:36:00,
2013-07-19 21:41:00,76.3,60.9,29.83,West,259,1.4,2.3,59,0.00,FEW,,0.03,WeatherDisplay:10.37,2013-07-20 02:41:00,
2013-07-19 21:46:00,76.2,61.3,29.84,NNE,19,0.0,0.0,60,0.00,FEW,,0.03,WeatherDisplay:10.37,2013-07-20 02:46:00,
2013-07-19 21:51:00,75.9,61.5,29.84,SSW,212,0.1,1.2,61,0.00,FEW,,0.03,WeatherDisplay:10.37,2013-07-20 02:51:00,
2013-07-19 21:56:00,75.7,61.8,29.84,SSW,212,0.0,0.0,62,0.00,FEW,,0.03,WeatherDisplay:10.37,2013-07-20 02:56:00,
2013-07-19 22:01:00,75.3,61.8,29.84,SSW,212,0.0,0.0,63,0.00,CLR,,0.03,WeatherDisplay:10.37,2013-07-20 03:01:00,
2013-07-19 22:06:00,75.2,61.7,29.84,WSW,256,1.4,3.5,63,0.00,CLR,,0.03,WeatherDisplay:10.37,2013-07-20 03:06:00,
2013-07-19 22:11:00,75.1,62.1,29.84,NNW,328,3.6,4.6,64,0.00,CLR,,0.03,WeatherDisplay:10.37,2013-07-20 03:11:00,
2013-07-19 22:16:00,75.3,62.3,29.85,SW,220,0.2,2.3,64,0.00,CLR,,0.03,WeatherDisplay:10.37,2013-07-20 03:16:00,
2013-07-19 22:21:00,75.4,61.9,29.85,NW,307,0.6,3.2,63,0.00,CLR,,0.03,WeatherDisplay:10.37,2013-07-20 03:21:00,
2013-07-19 22:26:00,75.2,61.7,29.85,WNW,288,1.6,3.5,63,0.00,CLR,,0.03,WeatherDisplay:10.37,2013-07-20 03:26:00,
2013-07-19 22:31:00,75.5,62.5,29.85,WNW,292,0.4,2.3,64,0.00,CLR,,0.03,WeatherDisplay:10.37,2013-07-20 03:31:00,
2013-07-19 22:36:00,75.1,62.1,29.86,WSW,257,0.9,2.3,64,0.00,CLR,,0.03,WeatherDisplay:10.37,2013-07-20 03:36:00,
2013-07-19 22:41:00,74.5,62.4,29.85,WNW,294,0.0,0.0,66,0.00,CLR,,0.03,WeatherDisplay:10.37,2013-07-20 03:41:00,
2013-07-19 22:46:00,73.9,62.2,29.86,SSW,205,2.2,3.5,67,0.00,CLR,,0.03,WeatherDisplay:10.37,2013-07-20 03:46:00,
2013-07-19 22:51:00,73.8,62.6,29.86,SW,230,1.1,2.3,68,0.00,CLR,,0.03,WeatherDisplay:10.37,2013-07-20 03:51:00,
2013-07-19 22:56:00,73.6,62.4,29.86,WSW,244,0.4,1.2,68,0.00,CLR,,0.03,WeatherDisplay:10.37,2013-07-20 03:56:00,
2013-07-19 23:01:00,73.2,62.4,29.86,SW,223,1.0,2.3,69,0.00,CLR,,0.03,WeatherDisplay:10.37,2013-07-20 04:01:00,
2013-07-19 23:06:00,72.8,62.8,29.86,WSW,247,0.1,1.2,71,0.00,CLR,,0.03,WeatherDisplay:10.37,2013-07-20 04:06:00,
2013-07-19 23:11:00,72.7,62.8,29.86,WSW,244,0.4,2.3,71,0.00,CLR,,0.03,WeatherDisplay:10.37,2013-07-20 04:11:00,
2013-07-19 23:16:00,72.7,62.8,29.86,WSW,247,0.9,1.2,71,0.00,CLR,,0.03,WeatherDisplay:10.37,2013-07-20 04:16:00,
2013-07-19 23:21:00,72.8,62.8,29.87,West,268,0.6,1.2,71,0.00,CLR,,0.03,WeatherDisplay:10.37,2013-07-20 04:21:00,
2013-07-19 23:26:00,72.7,63.1,29.87,West,261,0.9,1.2,72,0.00,CLR,,0.03,WeatherDisplay:10.37,2013-07-20 04:26:00,
2013-07-19 23:31:00,72.3,63.2,29.87,WSW,254,0.0,0.0,73,0.00,CLR,,0.03,WeatherDisplay:10.37,2013-07-20 04:31:00,
2013-07-19 23:36:00,72.1,63.4,29.87,WSW,237,1.2,2.3,74,0.00,CLR,,0.03,WeatherDisplay:10.37,2013-07-20 04:36:00,
2013-07-19 23:41:00,71.7,63.0,29.87,SW,223,0.0,1.2,74,0.00,CLR,,0.03,WeatherDisplay:10.37,2013-07-20 04:41:00,
2013-07-19 23:46:00,72.0,63.3,29.87,West,280,0.8,1.2,74,0.00,CLR,,0.03,WeatherDisplay:10.37,2013-07-20 04:46:00,
2013-07-19 23:51:00,71.8,63.4,29.87,WSW,256,0.1,1.4,75,0.00,CLR,,0.03,WeatherDisplay:10.37,2013-07-20 04:51:00,
2013-07-19 23:56:00,71.6,63.6,29.87,SW,218,0.4,1.2,76,0.00,CLR,,0.03,WeatherDisplay:10.37,2013-07-20 04:56:00,